Time;durP1;ratioP1;P1;durP2;ratioP2;P2;SDS_P1;SDS_P2;PMS_P1;PMS_P2;Temp;Humidity;BMP_temperature;BMP_pressure;BME280_temperature;BME280_humidity;BME280_pressure;Samples;Min_cycle;Max_cycle;Signal;HPM_P1;HPM_P2
2024/04/01 00:00:35;;;;;;;5.50;1.50;;;;;;;9.51;60.63;90848.25;2033927;70;20586;-70
2024/04/01 00:03:02;;;;;;;2.40;1.40;;;;;;;9.96;59.51;90849.78;2034663;70;20207;-70
2024/04/01 00:05:27;;;;;;;5.70;1.42;;;;;;;10.07;59.19;90846.63;2034928;70;20224;-71
2024/04/01 00:07:55;;;;;;;4.28;1.10;;;;;;;10.09;57.74;90848.81;2034558;70;20535;-71
2024/04/01 00:10:24;;;;;;;3.33;1.00;;;;;;;10.53;55.88;90832.63;2034624;70;20263;-70
2024/04/01 00:12:49;;;;;;;8.85;1.35;;;;;;;9.76;58.55;90863.84;2034512;70;20140;-70
2024/04/01 00:15:18;;;;;;;4.22;1.10;;;;;;;10.07;58.38;90826.22;2034754;70;20474;-71
2024/04/01 00:17:44;;;;;;;6.18;1.17;;;;;;;10.21;58.57;90879.41;2034567;70;20566;-73
2024/04/01 00:20:10;;;;;;;4.22;1.30;;;;;;;10.10;59.17;90827.75;2034378;70;20562;-75
2024/04/01 00:22:36;;;;;;;6.38;1.45;;;;;;;10.23;57.59;90862.59;2030930;70;20176;-69
2024/04/01 00:25:01;;;;;;;3.15;1.10;;;;;;;10.19;58.15;90857.56;2034412;70;20140;-76
2024/04/01 00:27:27;;;;;;;3.40;1.15;;;;;;;9.81;59.22;90851.41;2031230;70;20140;-74
2024/04/01 00:29:52;;;;;;;2.22;1.02;;;;;;;10.01;58.87;90741.72;2031064;70;20166;-72
2024/04/01 00:32:18;;;;;;;2.25;0.80;;;;;;;10.33;56.96;90776.50;2034459;70;20223;-69
2024/04/01 00:34:44;;;;;;;7.90;1.40;;;;;;;10.05;58.95;90786.81;2034335;70;20191;-72
2024/04/01 00:37:09;;;;;;;5.10;1.25;;;;;;;10.33;57.74;90750.47;2034265;70;20152;-70
2024/04/01 00:39:35;;;;;;;5.50;1.00;;;;;;;9.76;59.15;90737.41;2031504;70;20141;-71
2024/04/01 00:42:02;;;;;;;6.25;0.93;;;;;;;9.83;59.04;90725.00;2028543;70;20191;-70
2024/04/01 00:44:28;;;;;;;3.90;0.95;;;;;;;10.20;57.61;90740.91;2034938;70;20163;-77
2024/04/01 00:46:54;;;;;;;4.63;1.02;;;;;;;10.15;58.76;90720.38;2031487;70;20180;-76
2024/04/01 00:49:22;;;;;;;3.95;0.95;;;;;;;10.30;57.90;90718.75;2034988;70;20447;-70
2024/04/01 00:51:51;;;;;;;5.30;1.17;;;;;;;10.17;58.04;90731.69;2035011;70;20187;-74
2024/04/01 00:54:18;;;;;;;5.20;1.13;;;;;;;10.21;58.29;90691.00;2034990;70;20605;-73
2024/04/01 00:56:45;;;;;;;4.32;0.93;;;;;;;10.38;57.04;90670.47;2034872;70;20146;-76
2024/04/01 00:59:14;;;;;;;3.42;0.82;;;;;;;10.45;57.67;90672.09;2034594;70;20172;-77
2024/04/01 01:01:40;;;;;;;0.10;0.10;;;;;;;11.55;53.00;90719.38;2034750;70;20172;-76
2024/04/01 01:04:06;;;;;;;0.98;0.30;;;;;;;12.02;51.76;90683.88;2034763;70;20151;-73
2024/04/01 01:06:32;;;;;;;0.80;0.17;;;;;;;12.35;50.29;90648.66;2034191;70;20504;-72
2024/04/01 01:08:58;;;;;;;0.43;0.20;;;;;;;12.40;50.98;90661.44;2034499;70;20152;-70
2024/04/01 01:11:24;;;;;;;0.10;0.10;;;;;;;12.53;50.46;90640.56;2031115;70;20167;-71
2024/04/01 01:13:51;;;;;;;0.13;0.00;;;;;;;12.80;49.44;90646.75;2034380;70;20152;-71
2024/04/01 01:16:16;;;;;;;0.20;0.20;;;;;;;12.82;49.08;90672.91;2030393;70;20163;-71
2024/04/01 01:18:42;;;;;;;0.93;0.15;;;;;;;12.91;49.37;90656.84;2034524;70;20198;-70
2024/04/01 01:21:08;;;;;;;0.20;0.10;;;;;;;12.94;49.01;90638.56;2034980;70;20159;-76
2024/04/01 01:23:34;;;;;;;0.10;0.10;;;;;;;13.70;46.51;90635.69;2034873;70;20248;-78
2024/04/01 01:26:00;;;;;;;1.00;0.10;;;;;;;13.70;46.40;90677.38;2034735;70;20742;-73
2024/04/01 01:28:29;;;;;;;0.10;0.10;;;;;;;13.47;47.62;90684.75;2034482;70;20163;-74
2024/04/01 01:30:55;;;;;;;0.30;0.10;;;;;;;13.60;46.30;90635.50;2031179;70;20163;-71
2024/04/01 01:33:22;;;;;;;0.30;0.10;;;;;;;13.78;46.24;90649.22;2035216;70;20160;-73
2024/04/01 01:35:48;;;;;;;0.22;0.00;;;;;;;13.86;45.97;90710.88;2035083;70;20266;-72
2024/04/01 01:38:15;;;;;;;0.20;0.10;;;;;;;13.71;46.55;90688.00;2035131;70;20162;-71
2024/04/01 01:40:40;;;;;;;0.90;0.10;;;;;;;13.60;46.61;90713.94;2035075;70;20224;-71
2024/04/01 01:43:06;;;;;;;0.13;0.10;;;;;;;13.94;46.34;90713.84;2035046;70;20159;-71
2024/04/01 01:45:32;;;;;;;1.55;0.30;;;;;;;13.59;47.09;90687.06;2031269;70;20220;-70
2024/04/01 01:47:58;;;;;;;0.00;0.00;;;;;;;13.86;46.38;90618.25;2034813;70;20165;-72
2024/04/01 01:50:23;;;;;;;0.20;0.10;;;;;;;14.05;45.66;90624.91;2034787;70;20156;-71
2024/04/01 01:52:50;;;;;;;0.55;0.00;;;;;;;14.35;45.08;90638.78;2034787;70;20167;-73
2024/04/01 01:55:15;;;;;;;0.00;0.00;;;;;;;14.24;45.54;90591.94;2034893;70;20152;-72
2024/04/01 01:57:41;;;;;;;0.30;0.20;;;;;;;14.26;45.28;90620.25;2034879;70;20234;-72
2024/04/01 02:00:13;;;;;;;0.38;0.10;;;;;;;14.47;44.99;90619.13;2034755;70;20275;-72
2024/04/01 02:02:43;;;;;;;0.00;0.00;;;;;;;14.49;45.07;90612.81;2034767;70;20148;-72
2024/04/01 02:05:09;;;;;;;1.55;0.10;;;;;;;14.56;45.06;90614.31;2034700;70;20148;-73
2024/04/01 02:07:35;;;;;;;0.00;0.00;;;;;;;14.61;44.87;90618.63;2034700;70;20163;-72
2024/04/01 02:10:02;;;;;;;0.00;0.00;;;;;;;14.58;45.12;90650.44;2034895;70;20164;-72
2024/04/01 02:12:27;;;;;;;2.20;0.20;;;;;;;14.61;45.21;90706.38;2031376;70;20144;-74
2024/04/01 02:14:53;;;;;;;0.03;0.00;;;;;;;14.65;45.11;90643.44;2034855;70;20623;-72
2024/04/01 02:17:19;;;;;;;0.40;0.10;;;;;;;14.54;45.46;90631.28;2034935;70;20175;-71
2024/04/01 02:19:47;;;;;;;0.00;0.00;;;;;;;14.45;45.72;90759.94;2034764;70;20175;-71
2024/04/01 02:22:14;;;;;;;0.47;0.00;;;;;;;14.69;45.21;90657.66;2034961;70;20160;-72
2024/04/01 02:24:43;;;;;;;0.10;0.10;;;;;;;14.69;45.72;90697.31;2034878;70;20175;-75
2024/04/01 02:27:09;;;;;;;0.08;0.03;;;;;;;14.58;45.97;90681.59;2034804;70;20231;-73
2024/04/01 02:29:38;;;;;;;0.30;0.00;;;;;;;14.48;46.86;90665.19;2034728;70;20195;-72
2024/04/01 02:32:05;;;;;;;0.10;0.00;;;;;;;14.57;46.20;90700.69;2034695;70;20148;-71
2024/04/01 02:34:30;;;;;;;0.90;0.10;;;;;;;14.62;46.10;90713.50;2034762;70;20151;-77
2024/04/01 02:36:56;;;;;;;1.08;0.10;;;;;;;14.45;46.92;90720.28;2034923;70;20151;-72
2024/04/01 02:39:22;;;;;;;0.85;0.00;;;;;;;14.42;47.14;90767.66;2034881;70;20684;-75
2024/04/01 02:41:49;;;;;;;0.00;0.00;;;;;;;14.37;47.55;90769.00;2034605;70;20593;-71
2024/04/01 02:44:16;;;;;;;0.00;0.00;;;;;;;14.36;47.62;90730.06;2034790;70;20282;-73
2024/04/01 02:46:43;;;;;;;0.10;0.00;;;;;;;14.31;48.15;90773.84;2034673;70;20252;-72
2024/04/01 02:49:11;;;;;;;1.30;0.00;;;;;;;14.28;48.19;90738.41;2034967;70;20156;-73
2024/04/01 02:51:37;;;;;;;0.20;0.10;;;;;;;14.23;48.77;90720.66;2035000;70;20199;-72
2024/04/01 02:54:03;;;;;;;0.00;0.00;;;;;;;14.17;49.01;90740.38;2034573;70;20541;-71
2024/04/01 02:56:29;;;;;;;1.08;0.00;;;;;;;14.11;49.18;90690.06;2034627;70;20566;-72
2024/04/01 02:58:55;;;;;;;1.33;0.00;;;;;;;14.05;49.49;90712.59;2034667;70;20155;-73
2024/04/01 03:01:21;;;;;;;0.00;0.00;;;;;;;13.98;50.12;90757.06;2034421;70;20505;-74
2024/04/01 03:03:47;;;;;;;0.00;0.00;;;;;;;14.03;49.52;90738.03;2034901;70;20144;-74
2024/04/01 03:06:14;;;;;;;0.00;0.00;;;;;;;13.95;49.81;90735.06;2031192;70;20633;-77
2024/04/01 03:08:42;;;;;;;0.00;0.00;;;;;;;14.05;49.70;90757.16;2034879;70;20195;-78
2024/04/01 03:11:07;;;;;;;0.00;0.00;;;;;;;13.90;50.06;90720.13;2034604;70;20151;-76
2024/04/01 03:13:33;;;;;;;0.00;0.00;;;;;;;13.90;49.75;90748.41;2031286;70;20517;-75
2024/04/01 03:15:59;;;;;;;3.38;0.10;;;;;;;13.98;49.69;90750.69;2030985;70;20211;-77
2024/04/01 03:18:26;;;;;;;0.28;0.00;;;;;;;13.88;49.92;90767.44;2034902;70;20168;-71
2024/04/01 03:20:52;;;;;;;0.00;0.00;;;;;;;13.96;49.75;90745.69;2030609;70;20176;-71
2024/04/01 03:23:18;;;;;;;0.00;0.00;;;;;;;13.91;49.68;90729.34;2034507;70;20164;-71
2024/04/01 03:25:51;;;;;;;0.00;0.00;;;;;;;13.84;50.04;90768.13;2034270;70;20786;-71
2024/04/01 03:28:17;;;;;;;0.00;0.00;;;;;;;13.84;50.22;90708.72;2034338;70;20243;-71
2024/04/01 03:30:43;;;;;;;0.00;0.00;;;;;;;13.91;50.21;90774.59;2034591;70;20232;-71
2024/04/01 03:33:12;;;;;;;0.00;0.00;;;;;;;13.85;50.90;90777.31;2030941;70;20160;-75
2024/04/01 03:35:38;;;;;;;0.00;0.00;;;;;;;13.80;50.95;90748.25;2034703;70;20590;-71
2024/04/01 03:38:04;;;;;;;0.55;0.00;;;;;;;13.94;51.25;90739.28;2034790;70;20577;-73
2024/04/01 03:40:30;;;;;;;0.00;0.00;;;;;;;13.91;50.67;90768.94;2034608;70;20168;-72
2024/04/01 03:42:55;;;;;;;0.10;0.10;;;;;;;13.74;51.01;90750.94;2034607;70;20155;-71
2024/04/01 03:45:21;;;;;;;0.20;0.20;;;;;;;13.67;51.54;90781.22;2034534;70;20236;-72
2024/04/01 03:47:46;;;;;;;0.00;0.00;;;;;;;13.82;51.47;90782.22;2034609;70;20156;-71
2024/04/01 03:50:12;;;;;;;0.47;0.10;;;;;;;13.76;51.09;90790.59;2034704;70;20502;-72
2024/04/01 03:52:38;;;;;;;0.20;0.20;;;;;;;13.77;51.82;90803.31;2034668;70;20143;-71
2024/04/01 03:55:04;;;;;;;0.00;0.00;;;;;;;13.81;51.94;90800.56;2034667;70;20156;-71
2024/04/01 03:57:30;;;;;;;0.10;0.10;;;;;;;13.58;52.67;90798.72;2034778;70;20175;-72
2024/04/01 03:59:55;;;;;;;0.08;0.00;;;;;;;13.62;52.49;90812.94;2031042;70;20196;-70
2024/04/01 04:02:21;;;;;;;0.10;0.10;;;;;;;13.62;52.33;90827.06;2031164;70;20594;-71
2024/04/01 04:04:46;;;;;;;0.88;0.00;;;;;;;13.51;53.21;90812.00;2034879;70;20151;-73
2024/04/01 04:07:13;;;;;;;0.10;0.10;;;;;;;13.41;53.82;90823.81;2034887;70;20153;-71
2024/04/01 04:09:39;;;;;;;0.00;0.00;;;;;;;13.37;54.47;90811.72;2031172;70;20264;-72
2024/04/01 04:12:05;;;;;;;0.00;0.00;;;;;;;13.05;56.15;90800.44;2034813;70;20152;-77
2024/04/01 04:14:32;;;;;;;0.00;0.00;;;;;;;13.06;55.80;90770.81;2034785;70;20243;-73
2024/04/01 04:16:57;;;;;;;0.00;0.00;;;;;;;13.14;55.55;90799.22;2034487;70;20167;-74
2024/04/01 04:19:25;;;;;;;0.10;0.10;;;;;;;12.93;57.32;90812.91;2034941;70;20192;-72
2024/04/01 04:21:51;;;;;;;0.08;0.08;;;;;;;13.23;57.56;90798.03;2031187;70;20154;-73
2024/04/01 04:24:17;;;;;;;0.05;0.05;;;;;;;13.02;58.16;90798.97;2034678;70;20152;-71
2024/04/01 04:26:43;;;;;;;0.32;0.10;;;;;;;12.93;59.31;90810.09;2034548;70;20159;-71
2024/04/01 04:29:09;;;;;;;0.80;0.10;;;;;;;13.06;58.55;90802.59;2034710;70;20232;-70
2024/04/01 04:31:35;;;;;;;0.10;0.00;;;;;;;12.92;59.03;90819.22;2034440;70;20159;-70
2024/04/01 04:34:05;;;;;;;0.10;0.10;;;;;;;13.19;57.45;90772.47;2034688;70;20136;-71
2024/04/01 04:36:30;;;;;;;0.00;0.00;;;;;;;12.91;58.69;90786.72;2034775;70;20148;-71
2024/04/01 04:38:56;;;;;;;0.63;0.08;;;;;;;12.70;60.66;90791.22;2034668;70;20156;-71
2024/04/01 04:41:24;;;;;;;0.68;0.20;;;;;;;12.86;59.79;90768.28;2034800;70;20159;-71
2024/04/01 04:43:50;;;;;;;0.10;0.10;;;;;;;12.82;59.70;90766.06;2034650;70;20206;-73
2024/04/01 04:46:16;;;;;;;0.65;0.10;;;;;;;12.86;59.78;90774.63;2034616;70;20179;-73
2024/04/01 04:48:43;;;;;;;0.73;0.10;;;;;;;12.94;58.45;90768.44;2034547;70;20224;-74
2024/04/01 04:51:09;;;;;;;0.00;0.00;;;;;;;12.90;59.48;90760.59;2034817;70;20144;-76
2024/04/01 04:53:36;;;;;;;0.10;0.10;;;;;;;12.77;59.17;90773.03;2034751;70;20170;-72
2024/04/01 04:56:02;;;;;;;0.10;0.10;;;;;;;12.78;58.84;90751.88;2034801;70;20243;-74
2024/04/01 04:58:27;;;;;;;0.10;0.10;;;;;;;12.71;59.48;90767.97;2034805;70;20704;-71
2024/04/01 05:00:53;;;;;;;0.10;0.10;;;;;;;12.77;60.42;90770.19;2034738;70;20144;-71
2024/04/01 05:03:18;;;;;;;0.10;0.10;;;;;;;12.68;60.34;90782.69;2034720;70;20510;-76
2024/04/01 05:05:44;;;;;;;0.10;0.10;;;;;;;11.79;64.09;90784.78;2031532;70;20144;-77
2024/04/01 05:08:10;;;;;;;0.05;0.05;;;;;;;12.05;64.02;90793.25;2035491;70;20203;-78
2024/04/01 05:10:36;;;;;;;0.03;0.00;;;;;;;12.21;64.42;90785.16;2035324;70;20172;-73
2024/04/01 05:13:02;;;;;;;0.20;0.10;;;;;;;12.37;63.20;90753.06;2035680;70;20136;-78
2024/04/01 05:15:28;;;;;;;0.10;0.10;;;;;;;12.30;62.42;90768.44;2035336;70;20143;-78
2024/04/01 05:17:55;;;;;;;0.38;0.10;;;;;;;12.37;64.47;90781.28;2035265;70;20155;-78
2024/04/01 05:20:22;;;;;;;0.00;0.00;;;;;;;12.23;65.34;90750.63;2031305;70;20525;-72
2024/04/01 05:22:47;;;;;;;0.25;0.20;;;;;;;12.41;61.98;90778.56;2028935;70;20168;-74
2024/04/01 05:25:13;;;;;;;0.32;0.08;;;;;;;12.36;62.52;90782.66;2035168;70;20258;-72
2024/04/01 05:27:39;;;;;;;2.05;0.10;;;;;;;12.49;62.66;90781.56;2035286;70;20234;-74
2024/04/01 05:30:09;;;;;;;0.10;0.10;;;;;;;12.37;62.88;90779.19;2035179;70;20573;-75
2024/04/01 05:32:35;;;;;;;0.10;0.10;;;;;;;12.33;63.97;90769.94;2035155;70;20148;-70
2024/04/01 05:35:05;;;;;;;0.03;0.03;;;;;;;12.16;63.13;90780.09;2035315;70;20148;-74
2024/04/01 05:37:34;;;;;;;0.20;0.10;;;;;;;12.20;63.42;90761.16;2035344;70;20180;-78
2024/04/01 05:40:00;;;;;;;1.25;0.10;;;;;;;12.35;63.26;90753.75;2035296;70;20168;-72
2024/04/01 05:42:26;;;;;;;1.55;0.20;;;;;;;12.34;62.86;90757.25;2035098;70;20160;-76
2024/04/01 05:44:51;;;;;;;0.10;0.10;;;;;;;12.43;61.53;90753.22;2035061;70;20154;-70
2024/04/01 05:47:17;;;;;;;0.20;0.10;;;;;;;12.25;63.88;90753.50;2035114;70;20132;-70
2024/04/01 05:49:43;;;;;;;0.20;0.20;;;;;;;12.48;62.39;90754.75;2031474;70;20585;-74
2024/04/01 05:52:08;;;;;;;1.25;0.55;;;;;;;12.04;63.47;90734.66;2034940;70;20259;-71
2024/04/01 05:54:35;;;;;;;0.40;0.20;;;;;;;12.53;62.01;90747.09;2034563;70;20242;-72
2024/04/01 05:57:00;;;;;;;0.10;0.10;;;;;;;12.60;62.16;90754.28;2035124;70;20148;-78
2024/04/01 05:59:27;;;;;;;0.85;0.10;;;;;;;12.23;63.28;90721.72;2035222;70;20172;-74
2024/04/01 06:01:54;;;;;;;0.20;0.10;;;;;;;12.15;64.39;90762.47;2035057;70;20148;-73
2024/04/01 06:04:20;;;;;;;0.20;0.20;;;;;;;12.45;62.81;90761.72;2031449;70;20248;-71
2024/04/01 06:06:46;;;;;;;0.30;0.10;;;;;;;12.41;63.01;90755.97;2035124;70;20609;-73
2024/04/01 06:09:12;;;;;;;0.10;0.10;;;;;;;12.45;62.59;90717.28;2034874;70;20148;-72
2024/04/01 06:11:38;;;;;;;0.40;0.20;;;;;;;12.62;60.98;90704.25;2035145;70;20155;-72
2024/04/01 06:14:03;;;;;;;0.17;0.17;;;;;;;12.91;62.24;90668.84;2035008;70;20621;-72
2024/04/01 06:16:30;;;;;;;0.20;0.20;;;;;;;13.12;59.65;90621.22;2034946;70;20167;-70
2024/04/01 06:18:55;;;;;;;0.20;0.17;;;;;;;12.78;61.22;90622.00;2035069;70;20228;-70
2024/04/01 06:21:21;;;;;;;1.60;0.90;;;;;;;12.32;65.81;90676.09;2031392;70;20156;-73
2024/04/01 06:23:47;;;;;;;0.60;0.60;;;;;;;12.10;67.71;90748.94;2034870;70;20171;-75
2024/04/01 06:26:12;;;;;;;1.05;0.80;;;;;;;11.80;70.08;90802.44;2035020;70;20160;-72
2024/04/01 06:28:39;;;;;;;2.20;0.57;;;;;;;12.09;67.83;90815.88;2034903;70;20168;-73
2024/04/01 06:31:04;;;;;;;1.00;0.80;;;;;;;12.08;66.82;90808.81;2031450;70;20578;-74
2024/04/01 06:33:30;;;;;;;0.95;0.47;;;;;;;12.06;66.64;90836.25;2035115;70;20162;-71
2024/04/01 06:36:03;;;;;;;0.30;0.30;;;;;;;11.73;67.74;90823.38;2031621;70;20235;-71
2024/04/01 06:38:30;;;;;;;0.63;0.40;;;;;;;11.59;67.87;90813.19;2035426;70;20155;-77
2024/04/01 06:40:56;;;;;;;2.72;0.60;;;;;;;11.62;67.98;90806.19;2035134;70;20240;-73
2024/04/01 06:43:22;;;;;;;0.70;0.50;;;;;;;11.82;67.22;90794.78;2034844;70;20168;-71
2024/04/01 06:45:56;;;;;;;0.50;0.43;;;;;;;11.94;66.91;90803.53;2035209;70;20602;-75
2024/04/01 06:48:22;;;;;;;0.30;0.30;;;;;;;12.23;66.62;90821.16;2035133;70;20544;-77
2024/04/01 06:50:48;;;;;;;0.47;0.40;;;;;;;12.28;66.63;90813.50;2035065;70;20156;-73
2024/04/01 06:53:16;;;;;;;1.00;0.35;;;;;;;12.32;67.73;90824.91;2035061;70;20148;-72
2024/04/01 06:55:46;;;;;;;0.40;0.30;;;;;;;12.36;67.78;90822.88;2035121;70;20195;-70
2024/04/01 06:58:13;;;;;;;0.45;0.40;;;;;;;12.32;69.30;90830.53;2031570;70;20144;-75
2024/04/01 07:00:39;;;;;;;1.30;0.60;;;;;;;12.34;68.01;90805.91;2031327;70;20156;-76
2024/04/01 07:03:05;;;;;;;1.08;0.50;;;;;;;12.44;67.37;90825.91;2034839;70;20250;-75
2024/04/01 07:05:31;;;;;;;0.57;0.57;;;;;;;12.35;68.44;90826.38;2034962;70;20296;-74
2024/04/01 07:07:57;;;;;;;0.50;0.50;;;;;;;12.38;68.83;90842.69;2034980;70;20561;-73
2024/04/01 07:10:23;;;;;;;1.17;0.50;;;;;;;12.39;68.80;90846.25;2034882;70;20140;-71
2024/04/01 07:12:49;;;;;;;3.20;1.00;;;;;;;12.36;69.64;90848.28;2031395;70;20604;-71
2024/04/01 07:15:14;;;;;;;2.15;0.98;;;;;;;12.18;69.55;90837.25;2035058;70;20623;-71
2024/04/01 07:17:43;;;;;;;2.00;0.90;;;;;;;12.26;69.89;90836.03;2034591;70;20222;-71
2024/04/01 07:20:12;;;;;;;3.17;0.77;;;;;;;12.15;72.12;90841.44;2034876;70;20577;-72
2024/04/01 07:22:38;;;;;;;2.25;0.80;;;;;;;12.31;70.64;90843.94;2034772;70;20152;-72
2024/04/01 07:25:04;;;;;;;0.75;0.60;;;;;;;12.24;70.15;90847.28;2034755;70;20179;-71
2024/04/01 07:27:36;;;;;;;2.05;0.90;;;;;;;12.15;69.60;90861.19;2034905;70;20172;-70
2024/04/01 07:30:03;;;;;;;5.65;2.88;;;;;;;12.17;69.83;90880.97;2034771;70;20243;-71
2024/04/01 07:32:30;;;;;;;3.35;1.60;;;;;;;11.92;72.37;90893.00;2034890;70;20140;-70
2024/04/01 07:34:56;;;;;;;4.03;2.15;;;;;;;12.18;71.55;90901.41;2034717;70;20334;-71
2024/04/01 07:37:22;;;;;;;4.05;1.63;;;;;;;12.23;71.90;90905.78;2034720;70;20211;-72
2024/04/01 07:39:48;;;;;;;2.90;1.60;;;;;;;12.43;70.33;90928.16;2034799;70;20637;-72
2024/04/01 07:42:14;;;;;;;2.92;1.20;;;;;;;12.31;71.43;90934.19;2034806;70;20183;-74
2024/04/01 07:44:39;;;;;;;5.05;1.33;;;;;;;12.44;71.56;90933.13;2034761;70;20176;-70
2024/04/01 07:47:05;;;;;;;5.13;1.20;;;;;;;12.51;70.93;90944.56;2034471;70;20152;-71
2024/04/01 07:49:31;;;;;;;4.35;1.23;;;;;;;12.43;71.75;90950.75;2034513;70;20273;-71
2024/04/01 07:51:57;;;;;;;2.00;1.20;;;;;;;12.44;71.56;90949.34;2034645;70;20478;-71
2024/04/01 07:54:24;;;;;;;3.95;1.50;;;;;;;12.39;72.42;90939.34;2034579;70;20649;-71
2024/04/01 07:56:50;;;;;;;2.35;1.52;;;;;;;12.46;71.56;90943.75;2034616;70;20132;-70
2024/04/01 07:59:15;;;;;;;2.95;1.33;;;;;;;12.43;71.38;90940.19;2031086;70;20557;-71
2024/04/01 08:01:41;;;;;;;2.95;1.20;;;;;;;12.41;72.95;90945.03;2034406;70;20159;-72
2024/04/01 08:04:07;;;;;;;2.38;1.40;;;;;;;12.45;72.76;90937.38;2034855;70;20227;-69
2024/04/01 08:06:33;;;;;;;6.15;1.15;;;;;;;12.42;73.16;90930.28;2034523;70;20151;-71
2024/04/01 08:08:59;;;;;;;3.20;1.08;;;;;;;12.45;72.96;90914.81;2034552;70;20330;-73
2024/04/01 08:11:25;;;;;;;3.03;0.98;;;;;;;12.61;72.40;90906.06;2034723;70;20239;-71
2024/04/01 08:13:50;;;;;;;3.75;1.35;;;;;;;12.45;71.64;90906.34;2034586;70;20320;-70
2024/04/01 08:16:16;;;;;;;2.28;1.20;;;;;;;12.61;71.10;90908.16;2034500;70;20164;-72
2024/04/01 08:18:41;;;;;;;2.80;1.58;;;;;;;12.51;71.94;90911.44;2034515;70;20136;-71
2024/04/01 08:21:07;;;;;;;4.50;2.45;;;;;;;12.86;71.11;90932.75;2034783;70;20183;-75
2024/04/01 08:23:33;;;;;;;4.95;3.10;;;;;;;12.40;71.57;90938.69;2034917;70;20578;-75
2024/04/01 08:25:58;;;;;;;2.40;2.20;;;;;;;12.58;72.08;90954.66;2034902;70;20184;-73
2024/04/01 08:28:24;;;;;;;2.20;1.85;;;;;;;12.70;70.92;90969.78;2034653;70;20555;-73
2024/04/01 08:30:50;;;;;;;3.30;1.45;;;;;;;12.67;70.85;90964.75;2035101;70;20561;-72
2024/04/01 08:33:17;;;;;;;1.30;1.10;;;;;;;12.69;70.23;90987.38;2035128;70;20155;-71
2024/04/01 08:35:43;;;;;;;4.53;1.10;;;;;;;12.45;70.95;90991.00;2035101;70;20176;-71
2024/04/01 08:38:09;;;;;;;2.17;1.38;;;;;;;11.79;74.84;90996.22;2034470;70;20155;-71
2024/04/01 08:40:52;;;;;;;6.22;2.70;;;;;;;12.05;74.68;90995.53;2035090;70;20146;-72
2024/04/01 08:43:37;;;;;;;5.13;2.67;;;;;;;12.41;72.24;90993.00;2035183;70;20139;-72
2024/04/01 08:46:03;;;;;;;7.45;4.70;;;;;;;12.66;72.26;91002.84;2034910;70;20194;-74
2024/04/01 08:48:31;;;;;;;4.20;2.55;;;;;;;12.77;70.96;91003.81;2031790;70;20605;-72
2024/04/01 08:51:02;;;;;;;3.88;2.70;;;;;;;12.11;72.56;91002.09;2035014;70;20260;-73
2024/04/01 08:53:43;;;;;;;4.25;3.05;;;;;;;12.48;71.26;91017.19;2035491;70;20180;-77
2024/04/01 08:56:09;;;;;;;3.55;2.20;;;;;;;12.74;71.50;91017.19;2035387;70;20248;-75
2024/04/01 08:58:35;;;;;;;2.25;1.60;;;;;;;12.82;71.41;91020.19;2035432;70;20536;-72
2024/04/01 09:01:01;;;;;;;1.98;1.60;;;;;;;12.81;68.98;91021.56;2034874;70;20148;-73
2024/04/01 09:03:26;;;;;;;2.35;1.55;;;;;;;12.93;69.56;91007.78;2035106;70;20152;-74
2024/04/01 09:05:56;;;;;;;3.85;2.10;;;;;;;12.87;68.17;91026.66;2031572;70;20146;-72
2024/04/01 09:08:26;;;;;;;2.38;1.70;;;;;;;12.70;70.50;91025.53;2035287;70;20143;-72
2024/04/01 09:10:53;;;;;;;4.55;1.90;;;;;;;12.84;69.77;91030.84;2035106;70;20156;-72
2024/04/01 09:13:19;;;;;;;2.42;1.90;;;;;;;12.99;69.83;91026.97;2035524;70;20573;-73
2024/04/01 09:15:49;;;;;;;1.85;1.45;;;;;;;12.90;70.96;91005.56;2034880;70;20191;-73
2024/04/01 09:18:15;;;;;;;2.13;1.45;;;;;;;12.88;70.68;91020.34;2031430;70;20136;-72
2024/04/01 09:20:42;;;;;;;2.88;1.70;;;;;;;12.88;71.51;91023.19;2035158;70;20159;-73
2024/04/01 09:23:08;;;;;;;1.77;1.38;;;;;;;13.10;69.41;91016.63;2035158;70;20590;-74
2024/04/01 09:25:33;;;;;;;2.30;1.73;;;;;;;13.21;69.72;91012.69;2034965;70;20151;-74
2024/04/01 09:27:59;;;;;;;4.95;2.00;;;;;;;13.05;69.96;91000.97;2035205;70;20144;-74
2024/04/01 09:30:25;;;;;;;2.47;1.85;;;;;;;13.19;70.33;91001.31;2035424;70;20516;-72
2024/04/01 09:32:51;;;;;;;3.65;1.80;;;;;;;13.38;69.43;91023.03;2035142;70;20251;-73
2024/04/01 09:35:17;;;;;;;2.53;1.95;;;;;;;13.39;69.77;91015.25;2031758;70;20148;-72
2024/04/01 09:37:43;;;;;;;3.13;1.90;;;;;;;13.46;69.37;91014.72;2034986;70;20180;-73
2024/04/01 09:40:09;;;;;;;2.30;1.70;;;;;;;13.36;69.68;91014.47;2034863;70;20136;-72
2024/04/01 09:42:35;;;;;;;3.70;2.92;;;;;;;13.36;68.22;90989.03;2034987;70;20171;-73
2024/04/01 09:45:07;;;;;;;4.82;3.80;;;;;;;12.87;70.83;90998.41;2035161;70;20192;-73
2024/04/01 09:47:37;;;;;;;5.00;3.30;;;;;;;13.07;69.77;90996.09;2034937;70;20175;-72
2024/04/01 09:50:06;;;;;;;4.95;3.00;;;;;;;12.31;73.99;90993.44;2034851;70;20152;-72
2024/04/01 09:52:33;;;;;;;7.15;2.70;;;;;;;12.26;73.68;91008.13;2035324;70;20148;-74
2024/04/01 09:55:20;;;;;;;3.10;2.22;;;;;;;12.90;72.24;91011.94;2035212;70;20159;-75
2024/04/01 09:58:04;;;;;;;2.15;1.73;;;;;;;13.10;70.17;91011.72;2035209;70;20167;-74
2024/04/01 10:00:51;;;;;;;3.38;2.03;;;;;;;13.32;69.59;90999.53;2035127;70;20148;-72
2024/04/01 10:03:38;;;;;;;3.90;1.80;;;;;;;13.67;69.57;91010.25;2034978;70;20171;-73
2024/04/01 10:06:09;;;;;;;4.22;1.90;;;;;;;13.95;69.49;91015.09;2035119;70;20133;-72
2024/04/01 10:09:13;;;;;;;4.75;2.05;;;;;;;14.11;69.10;91009.03;2035195;70;20148;-72
2024/04/01 10:12:08;;;;;;;3.97;1.90;;;;;;;13.15;69.25;91026.66;2035208;70;20279;-72
2024/04/01 10:14:52;;;;;;;4.57;1.70;;;;;;;13.46;70.70;91033.78;2034961;70;20152;-72
2024/04/01 10:17:30;;;;;;;4.15;1.63;;;;;;;13.58;68.19;91044.66;2034776;70;20150;-73
2024/04/01 10:20:13;;;;;;;2.22;1.25;;;;;;;12.86;70.99;91034.41;2034951;70;20151;-75
2024/04/01 10:23:29;;;;;;;2.17;1.25;;;;;;;13.85;69.30;91040.31;2034988;70;20140;-75
2024/04/01 10:26:01;;;;;;;1.65;1.20;;;;;;;14.30;68.03;91035.63;2017823;71;20178;-71
2024/04/01 10:29:05;;;;;;;2.20;1.90;;;;;;;13.29;69.14;91041.16;2017499;71;20158;-73
2024/04/01 10:31:43;;;;;;;5.80;1.58;;;;;;;12.98;69.52;91062.25;2017508;71;20196;-73
2024/04/01 10:34:48;;;;;;;1.88;1.35;;;;;;;13.29;69.78;91066.59;2017570;71;20274;-72
2024/04/01 10:37:29;;;;;;;1.67;1.20;;;;;;;13.88;68.43;91076.47;2017890;71;20282;-74
2024/04/01 10:39:55;;;;;;;5.15;1.02;;;;;;;13.86;67.15;91070.75;2017754;71;20149;-74
2024/04/01 10:42:20;;;;;;;1.58;0.95;;;;;;;13.26;67.52;91061.56;2017696;71;20184;-74
2024/04/01 10:45:04;;;;;;;1.35;1.00;;;;;;;13.34;67.50;91054.00;2017495;71;20150;-75
2024/04/01 10:47:54;;;;;;;1.48;1.00;;;;;;;13.23;68.24;91038.19;2017531;71;20154;-73
2024/04/01 10:50:28;;;;;;;1.25;0.98;;;;;;;13.89;66.98;91049.63;2017785;71;20600;-74
2024/04/01 10:53:23;;;;;;;1.20;0.90;;;;;;;14.01;65.73;91054.09;2017807;71;20201;-73
2024/04/01 10:55:48;;;;;;;1.60;1.10;;;;;;;14.18;66.38;91050.22;2017636;71;20138;-75
2024/04/01 10:58:23;;;;;;;3.15;2.05;;;;;;;13.78;68.99;91064.91;2017671;71;20198;-75
2024/04/01 11:01:20;;;;;;;3.72;2.20;;;;;;;13.60;70.06;91075.78;2021186;70;20148;-71
2024/04/01 11:04:01;;;;;;;3.30;1.95;;;;;;;14.17;67.50;91068.63;2028735;70;20174;-73
2024/04/01 11:06:42;;;;;;;2.00;1.00;;;;;;;14.47;64.87;91079.84;2035060;70;20152;-74
2024/04/01 11:09:29;;;;;;;2.72;2.08;;;;;;;14.46;65.14;91089.72;2034645;70;20150;-74
2024/04/01 11:12:34;;;;;;;2.28;1.40;;;;;;;12.82;70.76;91087.94;2034983;70;20184;-76
2024/04/01 11:15:04;;;;;;;4.22;1.80;;;;;;;13.66;68.61;91112.72;2034176;70;20625;-74
2024/04/01 11:17:33;;;;;;;1.48;1.08;;;;;;;13.09;70.64;91094.31;2034741;70;20152;-75
2024/04/01 11:20:12;;;;;;;1.65;1.27;;;;;;;12.66;72.48;91098.81;2035039;70;20160;-76
2024/04/01 11:23:14;;;;;;;1.75;1.17;;;;;;;12.88;70.74;91099.44;2034999;70;20183;-75
2024/04/01 11:26:03;;;;;;;2.30;1.70;;;;;;;12.51;73.43;91111.81;2034795;70;20469;-74
2024/04/01 11:28:41;;;;;;;2.03;1.50;;;;;;;13.32;71.89;91109.75;2034636;70;20159;-75
2024/04/01 11:31:17;;;;;;;2.42;1.77;;;;;;;13.78;69.80;91106.63;2034819;70;20167;-75
2024/04/01 11:33:55;;;;;;;1.95;1.50;;;;;;;14.04;69.55;91115.00;2035018;70;20152;-73
2024/04/01 11:36:28;;;;;;;1.77;1.30;;;;;;;14.06;69.12;91112.91;2035068;70;20171;-74
2024/04/01 11:39:09;;;;;;;3.28;1.52;;;;;;;14.02;69.50;91146.81;2031362;70;20148;-74
2024/04/01 11:41:41;;;;;;;2.58;1.30;;;;;;;13.69;69.01;91148.84;2033351;70;20160;-74